Alpena, MI

11:38 AM EST on February 11, 2016 (GMT -0500)
APRSWXNET | | Change Station
CLOSE
Current Station
Personal Weather Station
Location: Alpena, MI
Elevation: 593 ft
Nearby Weather Stations

Elev 593 ft 45.05 °N, 83.45 °W | Updated 31 minutes ago

Overcast
Overcast
8 °F
Feels Like -1 °F
N
5
Wind Variable Wind from NW
Gusts 13.0 mph

Today
High -- | Low -- °F
--% Chance of Precip.
Yesterday
High -- | Low -- °F
Precip. -- in
Pressure 30.22 in
Visibility 5.0 miles
Clouds Overcast 2400 ft
Windchill -1 °F
Dew Point 4 °F
Humidity 82%
Rainfall in
Snow Depth Not available.
7:41 AM 5:55 PM
Waxing Crescent, 13% visible
METAR KAPN 111554Z AUTO 28010KT 5SM -SN OVC024 M14/M18 A3017 RMK AO2 UPB37E47SNE05B54 SLP234 P0001 T11391183
Pressure 30.22 in
Visibility 5.0 miles
Clouds Overcast 2400 ft
Windchill -1 °F
Dew Point 4 °F
Humidity 82%
Rainfall in
Snow Depth Not available.
7:41 AM 5:55 PM
Waxing Crescent, 13% visible
METAR KAPN 111554Z AUTO 28010KT 5SM -SN OVC024 M14/M18 A3017 RMK AO2 UPB37E47SNE05B54 SLP234 P0001 T11391183

10-Day Weather Forecast

Almanac

Astronomy

Feb. 11, 2016 Rise Set
Actual Time
Civil Twilight
Nautical Twilight
Astronomical Twilight
Moon
Length of Visible Light
Length of Day
Tomorrow will be .
, % of the Moon is Illuminated

Today's Extremes

State Highs State Lows

Community

WunderPhotos

Upload Photos

1,892,095 photos uploaded!

WunderBlog® & News

Nearby

Air Quality

  Air Quality AQ Index Pollutant
Not available.

Snow Depth

Station Depth Elevation

Earthquake Activity

City Distance Mag. Time & Date
Minimum magnitude displayed is 2.5.

Coastal Water Temperatures

Place Temperature

Stations

Nearby Weather Stations

Station Location Temp. Windchill Dew Point Humidity Wind Precip. Elev Updated Type
                   

Watches & Warnings

There are currently no watches in effect.